Time;durP1;ratioP1;P1;durP2;ratioP2;P2;SDS_P1;SDS_P2;PMS_P1;PMS_P2;Temp;Humidity;BMP_temperature;BMP_pressure;BME280_temperature;BME280_humidity;BME280_pressure;Samples;Min_cycle;Max_cycle;Signal;HPM_P1;HPM_P2
2024/01/12 00:00:08;;;;;;;29.80;18.60;;;;;;;-0.44;100.00;103414.84;5089882;28;20286;-39
2024/01/12 00:02:33;;;;;;;31.63;20.33;;;;;;;-0.49;100.00;103406.28;5090239;28;20169;-38
2024/01/12 00:04:59;;;;;;;29.90;20.47;;;;;;;-0.43;100.00;103423.69;5090107;28;20070;-38
2024/01/12 00:07:24;;;;;;;28.10;19.23;;;;;;;-0.42;100.00;103422.72;5080990;28;20431;-38
2024/01/12 00:09:49;;;;;;;23.83;15.90;;;;;;;-0.49;100.00;103408.94;5075832;28;20469;-38
2024/01/12 00:12:15;;;;;;;26.33;17.43;;;;;;;-0.48;100.00;103409.81;5076344;28;20403;-38
2024/01/12 00:14:40;;;;;;;26.93;18.47;;;;;;;-0.44;100.00;103414.84;5075643;28;20388;-38
2024/01/12 00:17:05;;;;;;;24.67;15.93;;;;;;;-0.46;100.00;103400.78;5076232;28;20051;-39
2024/01/12 00:19:31;;;;;;;29.13;18.63;;;;;;;-0.49;100.00;103400.09;5075840;28;20024;-39
2024/01/12 00:21:56;;;;;;;28.30;18.07;;;;;;;-0.42;100.00;103407.63;5076164;28;20031;-38
2024/01/12 00:24:21;;;;;;;25.20;18.07;;;;;;;-0.41;100.00;103416.44;5075777;28;20070;-38
2024/01/12 00:26:48;;;;;;;25.80;15.77;;;;;;;-0.39;100.00;103425.16;5076299;28;20059;-38
2024/01/12 00:29:13;;;;;;;29.13;18.75;;;;;;;-0.41;100.00;103419.94;5075729;28;20028;-38
2024/01/12 00:31:38;;;;;;;25.27;17.50;;;;;;;-0.41;100.00;103422.63;5076618;28;20078;-38
2024/01/12 00:34:03;;;;;;;27.90;17.73;;;;;;;-0.41;100.00;103417.28;5075667;28;20468;-38
2024/01/12 00:36:29;;;;;;;29.03;17.63;;;;;;;-0.40;100.00;103424.31;5075648;28;20485;-38
2024/01/12 00:38:54;;;;;;;27.57;16.67;;;;;;;-0.49;100.00;103414.25;5075287;28;20048;-38
2024/01/12 00:41:20;;;;;;;29.13;19.13;;;;;;;-0.42;100.00;103423.56;5075743;28;20320;-38
2024/01/12 00:43:45;;;;;;;28.43;19.33;;;;;;;-0.42;100.00;103430.69;5075670;28;20415;-38
2024/01/12 00:46:10;;;;;;;30.17;20.30;;;;;;;-0.51;100.00;103418.81;5075394;28;20111;-38
2024/01/12 00:48:36;;;;;;;28.27;18.63;;;;;;;-0.44;100.00;103430.81;5075069;28;20039;-38
2024/01/12 00:51:01;;;;;;;27.27;17.33;;;;;;;-0.49;100.00;103416.06;5075631;28;20033;-38
2024/01/12 00:53:26;;;;;;;26.43;17.17;;;;;;;-0.60;100.00;103390.16;5075814;28;20099;-38
2024/01/12 00:55:52;;;;;;;27.43;17.23;;;;;;;-0.50;100.00;103407.22;5075494;28;20098;-38
2024/01/12 00:58:18;;;;;;;;;;;;;;;-0.39;100.00;103419.84;5075560;28;20024;-38
2024/01/12 01:00:43;;;;;;;25.47;16.93;;;;;;;-0.47;100.00;103416.84;5075667;28;19924;-38
2024/01/12 01:03:08;;;;;;;25.07;16.13;;;;;;;-0.51;100.00;103402.88;5075321;28;20264;-38
2024/01/12 01:05:34;;;;;;;25.17;16.53;;;;;;;-0.41;100.00;103417.28;5075060;28;20060;-38
2024/01/12 01:07:59;;;;;;;25.97;16.53;;;;;;;-0.40;100.00;103413.69;5075029;28;20389;-38
2024/01/12 01:10:24;;;;;;;24.53;17.77;;;;;;;-0.47;100.00;103415.03;5075196;28;20029;-38
2024/01/12 01:12:50;;;;;;;29.47;18.53;;;;;;;-0.40;100.00;103432.28;5075173;28;20078;-39
2024/01/12 01:15:15;;;;;;;29.73;18.40;;;;;;;-0.40;100.00;103434.09;5074508;28;20520;-38
2024/01/12 01:17:41;;;;;;;34.07;21.90;;;;;;;-0.42;100.00;103436.84;5075419;28;20056;-38
2024/01/12 01:20:10;;;;;;;30.75;18.63;;;;;;;-0.47;100.00;103425.66;5073668;28;20031;-38
2024/01/12 01:22:35;;;;;;;28.67;19.58;;;;;;;-0.39;100.00;103441.13;5074974;28;20385;-38
2024/01/12 01:25:01;;;;;;;29.37;19.03;;;;;;;-0.39;100.00;103436.69;5074624;28;20040;-38
2024/01/12 01:27:26;;;;;;;30.25;19.23;;;;;;;-0.38;100.00;103448.16;5075434;28;20372;-38
2024/01/12 01:29:52;;;;;;;26.50;17.17;;;;;;;-0.39;100.00;103447.31;5075042;28;20023;-38
2024/01/12 01:32:17;;;;;;;31.47;19.83;;;;;;;-0.40;100.00;103453.56;5075048;28;20021;-38
2024/01/12 01:34:43;;;;;;;26.70;17.92;;;;;;;-0.47;100.00;103457.56;5074390;28;20052;-38
2024/01/12 01:37:08;;;;;;;27.60;18.40;;;;;;;-0.40;100.00;103466.84;5074220;28;20110;-38
2024/01/12 01:39:33;;;;;;;29.67;18.97;;;;;;;-0.41;100.00;103475.78;5074087;28;20109;-38
2024/01/12 01:42:01;;;;;;;25.50;16.17;;;;;;;-0.46;100.00;103461.91;5074309;28;20056;-38
2024/01/12 01:44:26;;;;;;;25.50;17.35;;;;;;;-0.39;100.00;103473.03;5074231;28;20040;-38
2024/01/12 01:46:53;;;;;;;26.52;17.27;;;;;;;-0.40;100.00;103466.84;5074995;28;20111;-38
2024/01/12 01:49:19;;;;;;;28.52;17.65;;;;;;;-0.39;100.00;103465.94;5074404;28;20480;-38
2024/01/12 01:51:45;;;;;;;23.83;15.98;;;;;;;-0.40;100.00;103461.53;5074112;28;20066;-38
2024/01/12 01:54:10;;;;;;;23.08;15.80;;;;;;;-0.38;100.00;103470.28;5074080;28;20056;-38
2024/01/12 01:56:39;;;;;;;24.70;16.93;;;;;;;-0.42;100.00;103463.44;5073845;28;20178;-38
2024/01/12 01:59:05;;;;;;;21.92;15.07;;;;;;;-0.35;100.00;103462.09;5074669;28;20085;-38
2024/01/12 02:01:30;;;;;;;;;;;;;;;-0.33;100.00;103454.91;5074332;28;20037;-38
2024/01/12 02:03:56;;;;;;;21.47;14.40;;;;;;;-0.37;100.00;103445.41;5073624;28;19908;-38
2024/01/12 02:06:22;;;;;;;;;;;;;;;-0.33;100.00;103449.59;5074249;28;20353;-38
2024/01/12 02:08:47;;;;;;;23.52;14.65;;;;;;;-0.37;100.00;103448.06;5073488;28;19981;-38
2024/01/12 02:11:13;;;;;;;19.73;13.80;;;;;;;-0.36;100.00;103440.94;5074047;28;20037;-38
2024/01/12 02:13:38;;;;;;;21.80;14.63;;;;;;;-0.37;100.00;103440.09;5073478;28;20036;-38
2024/01/12 02:16:04;;;;;;;23.80;16.77;;;;;;;-0.39;100.00;103428.72;5074208;28;20032;-38
2024/01/12 02:18:29;;;;;;;22.80;15.27;;;;;;;-0.37;100.00;103445.41;5073353;28;20021;-39
2024/01/12 02:20:58;;;;;;;27.40;18.00;;;;;;;-0.39;100.00;103442.00;5073930;28;20028;-39
2024/01/12 02:23:23;;;;;;;27.10;18.20;;;;;;;-0.38;100.00;103441.03;5073578;28;20465;-38
2024/01/12 02:25:49;;;;;;;22.63;14.87;;;;;;;-0.41;100.00;103432.41;5073399;28;20078;-39
2024/01/12 02:28:14;;;;;;;24.45;16.63;;;;;;;-0.35;100.00;103445.28;5074334;28;20067;-39
2024/01/12 02:30:40;;;;;;;25.00;16.73;;;;;;;-0.35;100.00;103442.63;5073351;28;20024;-38
2024/01/12 02:33:06;;;;;;;24.73;16.70;;;;;;;-0.39;100.00;103431.38;5073269;28;20067;-38
2024/01/12 02:35:31;;;;;;;21.40;15.32;;;;;;;-0.34;100.00;103444.34;5073624;28;20029;-38
2024/01/12 02:37:57;;;;;;;23.50;15.57;;;;;;;-0.38;100.00;103435.72;5073196;28;20032;-38
2024/01/12 02:40:22;;;;;;;19.70;14.43;;;;;;;-0.29;100.00;103452.91;5073992;28;20028;-38
2024/01/12 02:42:47;;;;;;;23.03;15.10;;;;;;;-0.34;100.00;103439.03;5073726;28;20025;-38
2024/01/12 02:45:13;;;;;;;24.43;15.57;;;;;;;-0.30;100.00;103437.88;5073654;28;20029;-38
2024/01/12 02:47:38;;;;;;;23.10;15.07;;;;;;;-0.28;100.00;103447.50;5073313;28;20117;-38
2024/01/12 02:50:04;;;;;;;28.33;18.07;;;;;;;-0.29;100.00;103445.78;5073564;28;20107;-38
2024/01/12 02:52:35;;;;;;;22.35;16.08;;;;;;;-0.29;100.00;103443.13;5073868;28;20025;-38
2024/01/12 02:55:02;;;;;;;23.25;15.30;;;;;;;-0.33;100.00;103419.47;5072921;28;20048;-38
2024/01/12 02:57:27;;;;;;;22.20;14.82;;;;;;;-0.29;100.00;103424.50;5073560;28;20078;-38
2024/01/12 02:59:52;;;;;;;24.63;17.07;;;;;;;-0.29;100.00;103432.50;5073510;28;20469;-38
2024/01/12 03:02:18;;;;;;;21.03;14.63;;;;;;;-0.28;100.00;103428.88;5073475;28;20116;-38
2024/01/12 03:04:43;;;;;;;26.23;16.80;;;;;;;-0.39;100.00;103415.41;5071907;28;20028;-38
2024/01/12 03:07:08;;;;;;;24.97;17.23;;;;;;;-0.30;100.00;103428.09;5073141;28;20134;-38
2024/01/12 03:09:34;;;;;;;20.03;14.80;;;;;;;-0.28;100.00;103428.88;5073052;28;20078;-38
2024/01/12 03:11:59;;;;;;;23.73;15.23;;;;;;;-0.40;100.00;103397.72;5073164;28;20029;-38
2024/01/12 03:14:24;;;;;;;22.23;15.97;;;;;;;-0.27;100.00;103427.06;5073086;28;20028;-38
2024/01/12 03:16:50;;;;;;;23.83;15.93;;;;;;;-0.28;100.00;103415.56;5073611;28;20028;-38
2024/01/12 03:19:15;;;;;;;22.67;15.57;;;;;;;-0.28;100.00;103417.38;5072982;28;20108;-38
2024/01/12 03:21:40;;;;;;;22.90;14.60;;;;;;;-0.26;100.00;103418.13;5073041;28;20033;-39
2024/01/12 03:24:06;;;;;;;20.90;13.90;;;;;;;-0.31;100.00;103404.28;5072927;28;20032;-39
2024/01/12 03:26:35;;;;;;;22.47;14.90;;;;;;;-0.24;100.00;103415.38;5073267;28;20078;-38
2024/01/12 03:29:00;;;;;;;21.63;15.35;;;;;;;-0.26;100.00;103412.81;5072851;28;20021;-38
2024/01/12 03:31:26;;;;;;;23.93;15.50;;;;;;;-0.27;100.00;103413.78;5072865;28;20028;-38
2024/01/12 03:33:51;;;;;;;24.50;16.00;;;;;;;-0.33;100.00;103408.84;5072781;28;20064;-38
2024/01/12 03:36:18;;;;;;;22.47;15.13;;;;;;;-0.27;100.00;103427.91;5072733;28;20087;-38
2024/01/12 03:38:45;;;;;;;22.02;14.77;;;;;;;-0.26;100.00;103416.31;5072494;28;20441;-38
2024/01/12 03:41:10;;;;;;;24.15;15.05;;;;;;;-0.31;100.00;103407.78;5073299;28;20024;-38
2024/01/12 03:43:36;;;;;;;25.63;16.63;;;;;;;-0.27;100.00;103409.31;5076248;28;20069;-38
2024/01/12 03:46:01;;;;;;;26.07;17.07;;;;;;;-0.32;100.00;103402.56;5077444;28;20109;-38
2024/01/12 03:48:27;;;;;;;24.60;16.58;;;;;;;-0.25;100.00;103417.19;5076420;28;20020;-38
2024/01/12 03:50:52;;;;;;;20.80;13.90;;;;;;;-0.32;100.00;103406.09;5077236;28;20365;-38
2024/01/12 03:53:18;;;;;;;23.37;15.00;;;;;;;-0.30;100.00;103403.31;5076681;28;20362;-38
2024/01/12 03:55:43;;;;;;;23.00;15.07;;;;;;;-0.26;100.00;103404.84;5076776;28;20045;-38
2024/01/12 03:58:08;;;;;;;24.70;16.37;;;;;;;-0.26;100.00;103396.84;5076655;28;20036;-38
2024/01/12 04:00:34;;;;;;;26.03;16.77;;;;;;;-0.24;100.00;103407.38;5076589;28;20028;-38
2024/01/12 04:02:59;;;;;;;24.38;16.20;;;;;;;-0.23;100.00;103403.81;5077035;28;20516;-38
2024/01/12 04:05:24;;;;;;;25.10;16.33;;;;;;;-0.23;100.00;103395.81;5076236;28;20119;-38
2024/01/12 04:07:50;;;;;;;23.13;15.70;;;;;;;-0.23;100.00;103390.50;5076993;28;20094;-38
2024/01/12 04:10:15;;;;;;;26.30;17.00;;;;;;;-0.24;100.00;103391.44;5076330;28;20033;-38
2024/01/12 04:12:41;;;;;;;26.60;18.67;;;;;;;-0.23;100.00;103398.47;5076830;28;20021;-38
2024/01/12 04:15:08;;;;;;;26.30;16.73;;;;;;;-0.24;100.00;103402.06;5076058;28;20036;-38
2024/01/12 04:17:34;;;;;;;25.05;15.65;;;;;;;-0.24;100.00;103400.28;5076041;28;20035;-38
2024/01/12 04:19:59;;;;;;;21.77;14.15;;;;;;;-0.21;100.00;103396.56;5076538;28;20024;-38
2024/01/12 04:22:24;;;;;;;25.53;16.90;;;;;;;-0.24;100.00;103400.28;5076280;28;20104;-39
2024/01/12 04:24:50;;;;;;;25.37;17.73;;;;;;;-0.22;100.00;103394.88;5076111;28;20078;-38
2024/01/12 04:27:15;;;;;;;26.40;16.23;;;;;;;-0.22;100.00;103403.69;5075893;28;20029;-38
2024/01/12 04:29:41;;;;;;;26.73;16.93;;;;;;;-0.23;100.00;103409.13;5075711;28;20032;-38
2024/01/12 04:32:06;;;;;;;26.63;17.30;;;;;;;-0.24;100.00;103418.03;5075969;28;20085;-38
2024/01/12 04:34:34;;;;;;;25.47;16.70;;;;;;;-0.23;100.00;103409.13;5075676;28;20020;-38
2024/01/12 04:37:00;;;;;;;23.85;15.57;;;;;;;-0.22;100.00;103410.81;5075804;28;20098;-38
2024/01/12 04:39:25;;;;;;;22.17;15.27;;;;;;;-0.21;100.00;103415.19;5075847;28;20033;-38
2024/01/12 04:41:50;;;;;;;25.03;15.73;;;;;;;-0.29;100.00;103394.41;5075556;28;20028;-38
2024/01/12 04:44:16;;;;;;;25.00;16.70;;;;;;;-0.30;100.00;103398.84;5075259;28;20082;-39
2024/01/12 04:46:42;;;;;;;21.80;15.03;;;;;;;-0.22;100.00;103406.34;5076275;28;20032;-38
2024/01/12 04:49:08;;;;;;;22.08;14.80;;;;;;;-0.20;100.00;103403.59;5075039;28;20021;-38
2024/01/12 04:51:33;;;;;;;24.73;15.97;;;;;;;-0.22;100.00;103400.19;5076223;28;20047;-38
2024/01/12 04:53:58;;;;;;;20.67;14.90;;;;;;;-0.28;100.00;103388.13;5075505;28;20021;-38
2024/01/12 04:56:24;;;;;;;24.02;16.92;;;;;;;-0.23;100.00;103403.81;5076046;28;20082;-38
2024/01/12 04:58:50;;;;;;;26.93;17.13;;;;;;;-0.25;100.00;103403.88;5074957;28;20024;-38
2024/01/12 05:01:16;;;;;;;22.45;15.20;;;;;;;-0.23;100.00;103406.47;5075412;28;20081;-38
2024/01/12 05:03:42;;;;;;;24.48;15.18;;;;;;;-0.24;100.00;103407.38;5074786;28;20499;-38
2024/01/12 05:06:08;;;;;;;21.42;15.10;;;;;;;-0.24;100.00;103397.63;5075343;28;20040;-38
2024/01/12 05:08:34;;;;;;;23.77;16.83;;;;;;;-0.20;100.00;103398.25;5074961;28;20029;-38
2024/01/12 05:10:59;;;;;;;21.77;14.57;;;;;;;-0.18;100.00;103385.75;5075004;28;20036;-38
2024/01/12 05:13:25;;;;;;;23.02;15.45;;;;;;;-0.19;100.00;103379.56;5075095;28;20040;-38
2024/01/12 05:15:50;;;;;;;30.33;16.40;;;;;;;-0.16;100.00;103379.34;5075370;28;20025;-38
2024/01/12 05:18:16;;;;;;;22.93;15.57;;;;;;;-0.21;100.00;103376.13;5074583;28;20116;-38
2024/01/12 05:20:41;;;;;;;22.92;15.75;;;;;;;-0.18;100.00;103386.59;5074769;28;20350;-38
2024/01/12 05:23:07;;;;;;;22.83;14.73;;;;;;;-0.17;100.00;103380.31;5075003;28;20031;-39
2024/01/12 05:25:32;;;;;;;26.43;14.23;;;;;;;-0.22;100.00;103365.63;5074727;28;20155;-38
2024/01/12 05:27:57;;;;;;;25.33;15.07;;;;;;;-0.15;100.00;103377.56;5074378;28;20446;-38
2024/01/12 05:30:23;;;;;;;22.90;14.43;;;;;;;-0.15;100.00;103374.88;5074833;28;20047;-38
2024/01/12 05:32:48;;;;;;;25.90;15.60;;;;;;;-0.20;100.00;103369.88;5074894;28;20020;-38
2024/01/12 05:35:13;;;;;;;20.97;14.77;;;;;;;-0.16;100.00;103370.53;5074460;28;20032;-38
2024/01/12 05:37:39;;;;;;;26.40;16.97;;;;;;;-0.18;100.00;103373.28;5074193;28;20468;-38
2024/01/12 05:40:04;;;;;;;25.57;16.37;;;;;;;-0.17;100.00;103377.66;5074043;28;20032;-39
2024/01/12 05:42:30;;;;;;;21.02;13.02;;;;;;;-0.17;100.00;103382.13;5074370;28;20028;-38
2024/01/12 05:44:55;;;;;;;23.57;15.30;;;;;;;-0.17;100.00;103385.63;5074232;28;20457;-38
2024/01/12 05:47:20;;;;;;;21.73;14.27;;;;;;;-0.13;100.00;103388.97;5074536;28;20067;-38
2024/01/12 05:49:46;;;;;;;22.65;13.40;;;;;;;-0.15;100.00;103391.69;5074968;28;20031;-38
2024/01/12 05:52:11;;;;;;;19.50;13.13;;;;;;;-0.26;100.00;103378.25;5074162;28;20033;-38
2024/01/12 05:54:37;;;;;;;22.50;13.17;;;;;;;-0.18;100.00;103377.75;5074222;28;20263;-39
2024/01/12 05:57:02;;;;;;;20.97;13.80;;;;;;;-0.21;100.00;103383.28;5074552;28;20028;-39
2024/01/12 05:59:28;;;;;;;20.80;12.55;;;;;;;-0.14;100.00;103397.91;5074009;28;20496;-39
2024/01/12 06:01:54;;;;;;;17.27;11.77;;;;;;;-0.11;100.00;103400.34;5074834;28;20028;-39
2024/01/12 06:04:19;;;;;;;21.05;13.35;;;;;;;-0.12;100.00;103401.28;5073241;28;20078;-39
2024/01/12 06:06:46;;;;;;;20.33;13.57;;;;;;;-0.12;100.00;103398.63;5074199;28;20044;-39
2024/01/12 06:09:11;;;;;;;21.25;13.70;;;;;;;-0.10;100.00;103400.25;5073577;28;20387;-39
2024/01/12 06:11:41;;;;;;;20.52;12.15;;;;;;;-0.11;100.00;103403.84;5074420;28;20025;-39
2024/01/12 06:14:07;;;;;;;21.05;12.10;;;;;;;-0.10;100.00;103394.06;5073954;28;20082;-39
2024/01/12 06:16:32;;;;;;;20.23;12.93;;;;;;;-0.12;100.00;103394.16;5073687;28;20033;-39
2024/01/12 06:18:57;;;;;;;17.03;11.60;;;;;;;-0.10;100.00;103400.25;5073699;28;20032;-39
2024/01/12 06:21:23;;;;;;;20.23;12.45;;;;;;;-0.09;100.00;103411.75;5074519;28;20039;-39
2024/01/12 06:23:48;;;;;;;23.77;14.83;;;;;;;-0.09;100.00;103409.94;5073640;28;20116;-39
2024/01/12 06:26:14;;;;;;;25.37;14.03;;;;;;;-0.08;100.00;103402.81;5073979;28;20028;-39
2024/01/12 06:28:39;;;;;;;22.40;13.50;;;;;;;-0.15;100.00;103401.47;5073552;28;20032;-39
2024/01/12 06:31:04;;;;;;;18.70;11.03;;;;;;;-0.10;100.00;103410.91;5074123;28;20025;-39
2024/01/12 06:33:31;;;;;;;19.80;12.17;;;;;;;-0.13;100.00;103400.44;5073256;28;20025;-39
2024/01/12 06:35:56;;;;;;;;;;;;;;;-0.05;100.00;103408.81;5073333;28;20472;-39
2024/01/12 06:38:21;;;;;;;16.80;10.90;;;;;;;-0.07;100.00;103404.50;5072895;28;19919;-39
2024/01/12 06:40:47;;;;;;;19.67;9.67;;;;;;;-0.05;100.00;103418.56;5073703;28;20051;-39
2024/01/12 06:43:12;;;;;;;18.37;11.03;;;;;;;-0.05;100.00;103413.25;5073429;28;20024;-39
2024/01/12 06:45:38;;;;;;;20.47;11.57;;;;;;;-0.04;100.00;103426.47;5073107;28;20085;-39
2024/01/12 06:48:03;;;;;;;21.33;12.50;;;;;;;-0.07;100.00;103415.16;5073115;28;20036;-39
2024/01/12 06:50:29;;;;;;;20.17;12.20;;;;;;;-0.03;100.00;103419.34;5072969;28;20028;-39
2024/01/12 06:52:55;;;;;;;22.83;12.70;;;;;;;-0.03;100.00;103429.97;5072819;28;20028;-37
2024/01/12 06:55:21;;;;;;;19.23;12.57;;;;;;;-0.11;100.00;103413.63;5073151;28;20053;-39
2024/01/12 06:57:46;;;;;;;20.10;12.70;;;;;;;-0.07;100.00;103420.47;5072923;28;20039;-38
2024/01/12 07:00:12;;;;;;;18.80;10.85;;;;;;;-0.13;100.00;103400.44;5073643;28;20028;-38
2024/01/12 07:02:38;;;;;;;24.40;12.23;;;;;;;-0.04;100.00;103405.19;5073384;28;20031;-38
2024/01/12 07:05:03;;;;;;;21.13;11.23;;;;;;;-0.03;100.00;103408.69;5073133;28;20029;-38
2024/01/12 07:07:29;;;;;;;22.45;11.32;;;;;;;-0.05;100.00;103397.28;5073345;28;20108;-38
2024/01/12 07:09:54;;;;;;;18.67;10.57;;;;;;;-0.02;100.00;103411.25;5072796;28;20035;-39
2024/01/12 07:12:20;;;;;;;17.58;10.35;;;;;;;0.01;100.00;103409.34;5073083;28;20024;-39
2024/01/12 07:14:45;;;;;;;21.53;11.73;;;;;;;0.05;100.00;103403.75;5073161;28;20020;-39
2024/01/12 07:17:11;;;;;;;17.20;10.07;;;;;;;0.01;100.00;103396.06;5074787;28;20033;-39
2024/01/12 07:19:36;;;;;;;19.13;10.05;;;;;;;0.04;100.00;103396.69;5077018;28;20119;-39
2024/01/12 07:22:02;;;;;;;20.43;11.33;;;;;;;0.07;100.00;103393.84;5077085;28;20041;-39
2024/01/12 07:24:27;;;;;;;16.05;9.68;;;;;;;0.05;100.00;103390.44;5076880;28;20025;-39
2024/01/12 07:26:52;;;;;;;16.57;9.40;;;;;;;0.00;100.00;103381.91;5076758;28;20192;-39
2024/01/12 07:29:22;;;;;;;19.20;10.67;;;;;;;0.08;100.00;103395.53;5076986;28;20056;-39
2024/01/12 07:31:50;;;;;;;18.45;9.02;;;;;;;0.10;100.00;103395.44;5077346;28;20036;-39
2024/01/12 07:34:17;;;;;;;18.65;9.90;;;;;;;0.06;100.00;103389.47;5077074;28;20028;-39
2024/01/12 07:36:43;;;;;;;14.82;9.85;;;;;;;-0.03;100.00;103379.44;5076291;28;20027;-39
2024/01/12 07:39:08;;;;;;;20.10;10.65;;;;;;;-0.01;100.00;103383.69;5076656;28;20024;-39
2024/01/12 07:41:33;;;;;;;18.33;10.37;;;;;;;0.05;100.00;103403.75;5076624;28;20028;-39
2024/01/12 07:43:59;;;;;;;15.10;10.23;;;;;;;0.04;100.00;103390.50;5076570;28;20115;-39
2024/01/12 07:46:25;;;;;;;15.60;9.50;;;;;;;0.09;100.00;103407.88;5076615;28;20122;-39
2024/01/12 07:48:50;;;;;;;20.27;11.23;;;;;;;-0.05;100.00;103376.88;5076141;28;20115;-39
2024/01/12 07:51:16;;;;;;;16.08;9.77;;;;;;;0.07;100.00;103395.66;5077257;28;20028;-39
2024/01/12 07:53:42;;;;;;;23.33;12.02;;;;;;;0.10;100.00;103385.66;5076679;28;20493;-39
2024/01/12 07:56:07;;;;;;;17.60;11.05;;;;;;;0.08;100.00;103381.38;5076777;28;20126;-39
2024/01/12 07:58:33;;;;;;;15.63;10.10;;;;;;;0.01;100.00;103367.63;5076658;28;20032;-39
2024/01/12 08:00:58;;;;;;;19.73;12.00;;;;;;;0.06;100.00;103377.97;5076618;28;20060;-39
2024/01/12 08:03:23;;;;;;;22.97;11.53;;;;;;;0.12;100.00;103389.06;5077107;28;20664;-39
2024/01/12 08:05:49;;;;;;;21.07;10.73;;;;;;;0.13;100.00;103384.59;5076505;28;20031;-39
2024/01/12 08:08:14;;;;;;;20.57;11.50;;;;;;;0.14;100.00;103394.28;5076688;28;20113;-39
2024/01/12 08:10:40;;;;;;;17.25;10.90;;;;;;;0.13;100.00;103393.44;5076175;28;20055;-39
2024/01/12 08:13:06;;;;;;;16.75;11.00;;;;;;;0.13;100.00;103396.09;5076944;28;20016;-39
2024/01/12 08:15:32;;;;;;;21.85;11.52;;;;;;;0.07;100.00;103383.19;5075719;28;20471;-39
2024/01/12 08:17:58;;;;;;;15.77;10.65;;;;;;;0.13;100.00;103400.56;5076494;28;20032;-39
2024/01/12 08:20:23;;;;;;;18.63;11.52;;;;;;;0.16;100.00;103400.38;5075635;28;20032;-39
2024/01/12 08:22:48;;;;;;;25.47;11.97;;;;;;;0.10;100.00;103396.31;5076773;28;20024;-39
2024/01/12 08:25:14;;;;;;;17.13;11.60;;;;;;;0.13;100.00;103397.91;5075545;28;20036;-39
2024/01/12 08:27:39;;;;;;;22.42;11.95;;;;;;;0.19;100.00;103403.66;5075659;28;20086;-39
2024/01/12 08:30:07;;;;;;;18.97;10.87;;;;;;;0.20;100.00;103396.56;5075745;28;20047;-39
2024/01/12 08:32:33;;;;;;;20.33;11.50;;;;;;;0.18;100.00;103404.63;5075989;28;20465;-39
2024/01/12 08:34:58;;;;;;;16.55;10.20;;;;;;;0.20;100.00;103410.72;5075649;28;20073;-39
2024/01/12 08:37:23;;;;;;;20.13;12.07;;;;;;;0.20;100.00;103412.53;5076213;28;20165;-39
2024/01/12 08:39:49;;;;;;;18.17;10.93;;;;;;;0.19;100.00;103422.28;5075660;28;20278;-39
2024/01/12 08:42:14;;;;;;;19.80;11.70;;;;;;;0.17;100.00;103418.88;5076429;28;20259;-39
2024/01/12 08:44:41;;;;;;;19.50;11.50;;;;;;;0.19;100.00;103424.94;5075328;28;20035;-39
2024/01/12 08:47:06;;;;;;;19.55;11.70;;;;;;;0.18;100.00;103415.25;5075718;28;20408;-39
2024/01/12 08:49:32;;;;;;;18.50;12.65;;;;;;;0.23;100.00;103413.16;5075503;28;20031;-39
2024/01/12 08:51:57;;;;;;;20.20;12.07;;;;;;;0.15;100.00;103399.53;5075110;28;20067;-39
2024/01/12 08:54:22;;;;;;;21.07;11.97;;;;;;;0.19;100.00;103390.34;5075429;28;20024;-39
2024/01/12 08:56:48;;;;;;;23.23;11.87;;;;;;;0.29;100.00;103405.72;5075099;28;20044;-39
2024/01/12 08:59:13;;;;;;;19.33;11.77;;;;;;;0.28;100.00;103393.38;5075496;28;20051;-39
2024/01/12 09:01:38;;;;;;;21.17;12.80;;;;;;;0.37;100.00;103412.25;5075283;28;20029;-39
2024/01/12 09:04:04;;;;;;;17.65;11.20;;;;;;;0.29;100.00;103393.28;5075145;28;20028;-39
2024/01/12 09:06:29;;;;;;;20.77;11.03;;;;;;;0.38;100.00;103413.09;5075666;28;20488;-39
2024/01/12 09:08:55;;;;;;;18.47;10.23;;;;;;;0.42;100.00;103407.47;5074784;28;20024;-39
2024/01/12 09:11:21;;;;;;;20.73;11.40;;;;;;;0.42;100.00;103402.16;5075006;28;20461;-39
2024/01/12 09:13:47;;;;;;;20.25;10.85;;;;;;;0.44;100.00;103400.25;5075185;28;20038;-39
2024/01/12 09:16:12;;;;;;;27.98;12.68;;;;;;;0.46;100.00;103403.66;5074888;28;20471;-39
2024/01/12 09:18:38;;;;;;;17.80;10.40;;;;;;;0.49;100.00;103413.28;5074885;28;20033;-39
2024/01/12 09:21:04;;;;;;;18.83;10.57;;;;;;;0.54;100.00;103412.94;5075391;28;20056;-39
2024/01/12 09:23:29;;;;;;;21.83;10.98;;;;;;;0.54;100.00;103408.50;5074426;28;20025;-39
2024/01/12 09:25:55;;;;;;;18.38;10.48;;;;;;;0.58;100.00;103401.97;5075260;28;20210;-39
2024/01/12 09:28:21;;;;;;;17.43;10.13;;;;;;;0.60;100.00;103400.09;5075160;28;20392;-39
2024/01/12 09:30:47;;;;;;;20.65;10.30;;;;;;;0.60;100.00;103384.09;5074626;28;20534;-39
2024/01/12 09:33:13;;;;;;;18.23;10.07;;;;;;;0.70;100.00;103400.31;5075402;28;20378;-39
2024/01/12 09:35:38;;;;;;;20.63;10.70;;;;;;;0.72;100.00;103403.72;5074188;28;20032;-39
2024/01/12 09:38:03;;;;;;;20.10;11.13;;;;;;;0.74;100.00;103402.66;5074981;28;20116;-39
2024/01/12 09:40:29;;;;;;;22.00;11.37;;;;;;;0.63;100.00;103377.69;5073616;28;20035;-39
2024/01/12 09:42:57;;;;;;;19.63;10.82;;;;;;;0.77;100.00;103390.94;5074949;28;20029;-39
2024/01/12 09:45:23;;;;;;;21.85;11.18;;;;;;;0.80;100.00;103395.22;5074265;28;20028;-39
2024/01/12 09:47:49;;;;;;;20.67;10.88;;;;;;;0.74;100.00;103391.16;5075093;28;20020;-39
2024/01/12 09:50:15;;;;;;;24.87;11.80;;;;;;;0.85;100.00;103395.75;5074492;28;20476;-39
2024/01/12 09:52:41;;;;;;;22.05;10.40;;;;;;;0.88;100.00;103398.19;5074486;28;20039;-39
2024/01/12 09:55:07;;;;;;;19.50;11.07;;;;;;;0.91;100.00;103396.19;5073892;28;20045;-39
2024/01/12 09:57:34;;;;;;;18.25;10.25;;;;;;;0.89;100.00;103386.59;5074115;28;20029;-39
2024/01/12 10:00:01;;;;;;;23.85;11.10;;;;;;;0.94;100.00;103400.47;5074041;28;20060;-39
2024/01/12 10:02:27;;;;;;;24.10;11.57;;;;;;;0.96;100.00;103394.03;5074495;28;20029;-39
2024/01/12 10:04:52;;;;;;;20.20;11.20;;;;;;;0.98;100.00;103388.63;5073634;28;20391;-39
2024/01/12 10:07:18;;;;;;;24.23;11.73;;;;;;;1.01;100.00;103389.25;5074499;28;20032;-39
2024/01/12 10:09:43;;;;;;;17.57;10.43;;;;;;;1.03;100.00;103398.00;5074215;28;20028;-39
2024/01/12 10:12:09;;;;;;;23.13;11.53;;;;;;;1.01;100.00;103394.59;5074219;28;20350;-39
2024/01/12 10:14:34;;;;;;;24.02;11.70;;;;;;;1.05;100.00;103400.56;5073877;28;20468;-39
2024/01/12 10:17:00;;;;;;;32.27;13.60;;;;;;;1.08;100.00;103397.69;5073698;28;20056;-39
2024/01/12 10:19:26;;;;;;;23.73;11.15;;;;;;;1.10;100.00;103403.75;5073446;28;20142;-39
2024/01/12 10:21:52;;;;;;;18.58;9.85;;;;;;;1.13;100.00;103416.03;5074569;28;20082;-39
2024/01/12 10:24:21;;;;;;;19.63;11.13;;;;;;;1.13;100.00;103419.53;5073466;28;20385;-39
2024/01/12 10:26:48;;;;;;;20.05;10.82;;;;;;;1.14;100.00;103415.06;5074104;28;20456;-39
2024/01/12 10:29:15;;;;;;;21.58;11.05;;;;;;;1.16;100.00;103408.66;5073319;28;20037;-39
2024/01/12 10:31:43;;;;;;;16.48;10.20;;;;;;;1.15;100.00;103414.09;5074104;28;20119;-39
2024/01/12 10:34:11;;;;;;;25.55;10.60;;;;;;;1.16;100.00;103408.66;5073486;28;20100;-39
2024/01/12 10:36:40;;;;;;;17.55;11.07;;;;;;;1.17;100.00;103399.72;5073978;28;20428;-39
2024/01/12 10:39:10;;;;;;;20.67;10.45;;;;;;;1.16;100.00;103398.00;5074015;28;20518;-39
2024/01/12 10:41:36;;;;;;;20.10;11.10;;;;;;;1.20;100.00;103388.81;5073671;28;20036;-39
2024/01/12 10:44:05;;;;;;;20.55;10.68;;;;;;;1.23;100.00;103382.44;5073694;28;20089;-39
2024/01/12 10:46:40;;;;;;;18.88;9.95;;;;;;;1.16;100.00;103371.34;5073595;28;20373;-39
2024/01/12 10:49:12;;;;;;;17.30;9.85;;;;;;;1.24;100.00;103381.47;5073716;28;20027;-39
2024/01/12 10:51:41;;;;;;;19.20;10.32;;;;;;;1.27;100.00;103386.59;5073422;28;20420;-39
2024/01/12 10:54:17;;;;;;;17.83;10.13;;;;;;;1.29;100.00;103388.19;5073272;28;20036;-39
2024/01/12 10:56:44;;;;;;;16.80;10.32;;;;;;;1.28;100.00;103383.81;5073823;28;20056;-39
2024/01/12 10:59:09;;;;;;;;;;;;;;;1.32;100.00;103375.59;5073960;28;20031;-39